Ashboro, Indiana
Current Conditions -  °F | °C
As of 4:15 PM on Wednesday 17 Dec 2014 (Local Time) from KHUF Reporting Station
Overcast Overcast  
Wind Chill: 18°   Ceiling: 1400
Heat Index: 26°   Visibility: 9mi
Dew Point: 20°   Wind: 8mph
Humidity: 78%   Direction: 320°NW
Pressure: 30.29"   Gusts: NA
Location:  39.3787°N, 87.0992°W
Report Text: KHUF 172115Z 32007KT 9SM OVC014 M03/M07 A3029 RMK AO2 T10331067
Loading
Personal Weather Stations






























Interactive Weather Map New forecast layout! Learn more

10-Day Weather Forecast

Advertisements
Track Severe Weather on mobile